Latest Weather Observations for Hogan Island

IDV60801

Issued at 11:35 am EST Tuesday 2 September 2014 (issued every 30 minutes, with the page automatically refreshed every 10 minutes)

About weather observations | Map of weather stations | Latest weather observations for VIC | Other Formats
Station Details ID: 200838 Name: HOGAN ISLAND Lat: -39.22 Lon: 146.98 Height: 116.0 m
Data from the previous 72 hours. | See also: Recent months at Hogan Island
Date/Time
EST
Temp
°C
App
Temp
°C
Dew
Point
Rel
Hum
%
Delta-T
°C
Wind Press
QNH
hPa
Press
MSL
hPa
Rain
since 9 am
mm
Dir
 
Spd
km/h
Gust
km/h
Spd
kts
Gust
kts
02/11:30am 13.5 6.7 4.9 56 4.0 SSE 30 39 16 21 1016.4 - 0.0
02/11:00am 13.0 6.0 6.8 66 3.0 S 33 44 18 24 1016.3 - 0.0
02/10:30am 13.2 5.6 5.6 60 3.6 S 35 46 19 25 1016.1 - 0.0
02/10:00am 12.7 5.3 6.7 67 2.9 SSE 35 44 19 24 1015.8 - 0.0
02/09:30am 12.1 3.0 5.7 65 3.0 SSE 43 52 23 28 1015.3 - 0.0
02/09:00am 11.7 3.4 6.0 68 2.7 SSE 39 46 21 25 1015.1 1015.2 0.0
02/08:30am 10.8 2.6 6.6 75 2.0 SSE 39 50 21 27 1014.7 - 0.0
02/08:00am 9.6 -0.1 6.0 78 1.7 SSE 46 54 25 29 1014.2 - 0.0
02/07:30am 10.1 1.5 6.4 78 1.7 SSE 41 48 22 26 1013.7 - 0.0
02/07:00am 10.0 3.1 7.1 82 1.4 SSE 33 43 18 23 1013.4 - 0.0
02/06:30am 9.9 3.2 7.3 84 1.2 SSE 32 39 17 21 1012.9 - 0.0
02/06:00am 9.5 2.7 7.1 85 1.1 S 32 39 17 21 1012.3 1012.4 0.0
02/05:30am 9.2 3.2 7.2 87 0.9 S 28 39 15 21 1011.9 - 0.0
02/05:00am 9.3 2.6 7.3 87 1.0 SSE 32 39 17 21 1011.5 - 0.0
02/04:30am 9.1 0.2 6.9 86 1.0 SE 43 54 23 29 1010.5 - 0.0
02/04:08am 9.4 -2.0 6.8 84 1.2 SSE 56 65 30 35 1010.2 - 0.0
02/04:00am 9.6 -0.6 6.9 83 1.3 S 50 65 27 35 1010.2 - 0.0
02/03:56am 9.7 -1.3 6.8 82 1.4 S 54 65 29 35 1010.1 - 0.0
02/03:30am 10.6 0.9 7.3 80 1.6 SW 48 56 26 30 1009.8 - 0.0
02/03:00am 10.8 0.4 7.7 81 1.5 SW 52 65 28 35 1009.7 1009.8 0.0
02/02:30am 10.7 0.3 7.8 82 1.4 SW 52 59 28 32 1009.4 - 0.0
02/02:00am 11.0 0.6 7.7 80 1.6 SW 52 59 28 32 1009.4 - 0.0
02/01:30am 11.3 1.3 7.8 79 1.7 SW 50 59 27 32 1009.3 - 0.0
02/01:00am 10.9 0.3 6.8 76 2.0 SW 52 59 28 32 1009.1 - 0.0
02/12:30am 10.9 -0.1 6.8 76 2.0 WSW 54 63 29 34 1008.7 - 0.0
02/12:00am 10.9 -0.4 7.0 77 1.9 WSW 56 65 30 35 1008.9 1009.0 0.0
 
Date/Time
EST
Temp
°C
App
Temp
°C
Dew
Point
Rel
Hum
%
Delta-T
°C
Wind Press
QNH
hPa
Press
MSL
hPa
Rain
since 9 am
mm
Dir
 
Spd
km/h
Gust
km/h
Spd
kts
Gust
kts
01/11:30pm 11.1 -0.1 7.6 79 1.7 WSW 56 69 30 37 1008.8 - 0.0
01/11:00pm 11.1 0.3 7.6 79 1.7 WSW 54 63 29 34 1008.6 - 0.0
01/10:30pm 11.1 1.0 7.2 77 1.9 WSW 50 57 27 31 1008.6 - 0.0
01/10:00pm 11.2 1.2 7.7 79 1.7 WSW 50 57 27 31 1008.5 - 0.0
01/09:30pm 11.4 2.2 8.1 80 1.6 WSW 46 54 25 29 1008.5 - 0.0
01/09:00pm 11.4 2.3 8.4 82 1.5 WSW 46 54 25 29 1008.3 1008.4 0.0
01/08:30pm 11.4 2.3 8.4 82 1.5 WSW 46 52 25 28 1008.3 - 0.0
01/08:00pm 11.4 2.8 8.8 84 1.3 W 44 52 24 28 1008.3 - 0.0
01/07:30pm 11.6 3.1 9.3 86 1.2 W 44 52 24 28 1008.0 - 0.0
01/07:00pm 11.6 3.8 9.7 88 1.0 W 41 46 22 25 1007.7 - 0.0
01/06:30pm 11.3 4.2 9.7 90 0.8 W 37 43 20 23 1007.4 - 0.0
01/06:00pm 11.5 3.1 9.8 89 0.9 WNW 44 56 24 30 1006.8 1006.9 0.0
01/05:30pm 11.5 2.7 9.4 87 1.1 WNW 46 52 25 28 1006.4 - 0.0
01/05:00pm 11.7 2.1 9.4 86 1.2 WNW 50 56 27 30 1006.2 - 0.0
01/04:30pm 11.6 1.6 9.5 87 1.1 WNW 52 57 28 31 1005.9 - 0.0
01/04:00pm 11.9 3.5 9.8 87 1.1 WNW 44 54 24 29 1005.8 - 0.0
01/03:30pm 11.7 1.8 9.6 87 1.1 WNW 52 61 28 33 1005.7 - 0.0
01/03:00pm 11.5 1.5 9.2 86 1.2 WNW 52 61 28 33 1006.0 1006.1 0.0
01/02:30pm 12.2 2.5 9.2 82 1.5 WNW 50 59 27 32 1006.1 - 0.0
01/02:00pm 12.9 1.8 8.6 75 2.2 WNW 57 69 31 37 1005.7 - 0.0
01/01:56pm 13.0 1.5 8.5 74 2.3 WNW 59 69 32 37 1005.5 - 0.0
01/01:38pm 13.3 5.2 8.6 73 2.4 W 41 59 22 32 1006.2 - 0.0
01/01:30pm 13.3 6.3 8.6 73 2.4 W 35 39 19 21 1006.3 - 0.0
01/01:26pm 13.4 7.0 8.5 72 2.5 W 32 39 17 21 1006.4 - 0.0
01/01:00pm 14.4 6.6 6.7 60 3.8 NW 37 46 20 25 1006.2 - 0.0
01/12:30pm 14.2 7.2 8.6 69 2.8 WNW 35 39 19 21 1006.6 - 0.0
01/12:00pm 14.8 8.5 9.8 72 2.6 WNW 33 39 18 21 1006.9 1007.0 0.0
01/11:30am 14.2 7.9 9.0 71 2.7 W 32 41 17 22 1007.2 - 0.0
01/11:00am 14.5 8.6 8.9 69 2.9 WNW 30 43 16 23 1007.3 - 0.0
01/10:30am 14.7 7.7 8.4 66 3.2 NW 35 46 19 25 1007.3 - 0.0
01/10:00am 14.8 9.2 8.7 67 3.1 NNW 28 37 15 20 1007.3 - 0.0
01/09:30am 14.8 9.0 8.1 64 3.4 N 28 35 15 19 1007.4 - 0.0
01/09:00am 14.8 7.3 7.8 63 3.5 N 37 46 20 25 1007.4 1007.5 0.0
01/08:30am 16.0 7.3 6.2 52 4.8 N 41 63 22 34 1007.4 - 0.0
01/08:12am 15.4 6.6 7.4 59 4.0 N 43 65 23 35 1007.3 - 0.0
01/08:00am 15.2 6.2 7.2 59 4.0 N 44 54 24 29 1007.5 - 0.0
01/07:30am 14.5 7.1 8.5 67 3.0 N 37 48 20 26 1007.4 - 0.0
01/07:00am 14.3 6.6 8.5 68 2.9 NNE 39 46 21 25 1007.5 - 0.0
01/06:30am 15.7 8.6 6.2 53 4.6 N 33 46 18 25 1008.3 - 0.0
01/06:00am 15.7 8.7 6.7 55 4.4 N 33 46 18 25 1008.7 1008.8 0.0
01/05:30am 14.3 7.6 8.3 67 3.0 N 33 48 18 26 1008.6 - 0.0
01/05:00am 15.2 7.1 8.7 65 3.3 N 41 48 22 26 1008.1 - 0.0
01/04:30am 13.9 5.9 9.1 73 2.5 N 41 48 22 26 1008.2 - 0.0
01/04:00am 13.5 6.4 9.4 76 2.1 N 37 44 20 24 1008.4 - 0.0
01/03:30am 13.7 6.9 9.4 75 2.2 N 35 44 19 24 1008.8 - 0.0
01/03:00am 13.6 6.1 9.3 75 2.2 N 39 46 21 25 1009.1 1009.2 0.0
01/02:30am 14.0 8.1 10.4 79 1.9 N 32 46 17 25 1009.5 - 0.0
01/02:00am 13.6 7.1 10.2 80 1.8 N 35 43 19 23 1009.7 - 0.0
01/01:30am 13.3 6.7 10.1 81 1.7 NNE 35 39 19 21 1009.9 - 0.0
01/01:00am 13.4 7.4 10.0 80 1.8 NNE 32 39 17 21 1010.2 - 0.0
01/12:30am 13.3 6.6 9.7 79 1.9 NNE 35 41 19 22 1010.6 - 0.0
01/12:00am 13.3 6.3 9.9 80 1.8 NNE 37 43 20 23 1011.1 1011.2 0.0
 
Date/Time
EST
Temp
°C
App
Temp
°C
Dew
Point
Rel
Hum
%
Delta-T
°C
Wind Press
QNH
hPa
Press
MSL
hPa
Rain
since 9 am
mm
Dir
 
Spd
km/h
Gust
km/h
Spd
kts
Gust
kts
31/11:30pm 12.9 5.5 9.9 82 1.5 NNE 39 44 21 24 1011.6 - 0.0
31/11:00pm 12.8 5.9 10.3 85 1.3 NNE 37 44 20 24 1011.9 - 0.0
31/10:30pm 12.6 6.5 10.3 86 1.2 NNE 33 39 18 21 1012.5 - 0.0
31/10:00pm 12.6 6.1 10.3 86 1.2 NNE 35 41 19 22 1012.9 - 0.0
31/09:30pm 12.7 6.2 10.2 85 1.3 NNE 35 43 19 23 1013.2 - 0.0
31/09:00pm 12.7 6.8 10.4 86 1.2 NNE 32 39 17 21 1013.4 1013.5 0.0
31/08:30pm 12.6 7.5 10.5 87 1.1 NNE 28 33 15 18 1013.7 - 0.0
31/08:00pm 12.3 7.5 10.2 87 1.1 NNE 26 30 14 16 1013.7 - 0.0
31/07:30pm 12.4 7.2 10.1 86 1.2 NNE 28 33 15 18 1013.8 - 0.0
31/07:00pm 12.2 7.3 9.8 85 1.2 NNE 26 30 14 16 1014.1 - 0.0
31/06:30pm 12.4 7.8 9.6 83 1.4 NE 24 30 13 16 1014.1 - 0.0
31/06:00pm 12.5 7.9 9.5 82 1.5 NE 24 30 13 16 1014.0 1014.1 0.0
31/05:30pm 12.5 8.8 9.3 81 1.6 NE 19 26 10 14 1014.0 - 0.0
31/05:00pm 12.9 9.3 9.9 82 1.5 NE 19 26 10 14 1014.1 - 0.0
31/04:30pm 13.0 9.3 10.2 83 1.5 NE 20 26 11 14 1014.0 - 0.0
31/04:00pm 13.4 10.1 10.8 84 1.4 NE 19 26 10 14 1014.2 - 0.0
31/03:30pm 14.4 11.7 11.6 83 1.5 NE 17 20 9 11 1014.6 - 0.0
31/03:00pm 14.2 11.5 11.7 85 1.3 NE 17 20 9 11 1014.8 1014.9 0.0
31/02:30pm 14.3 11.6 11.8 85 1.4 NE 17 20 9 11 1015.2 - 0.0
31/02:00pm 14.4 11.4 12.1 86 1.3 NE 19 22 10 12 1015.5 - 0.0
31/01:30pm 14.4 11.5 12.3 87 1.1 NE 19 22 10 12 1015.8 - 0.0
31/01:00pm 13.6 10.5 11.5 87 1.1 NE 19 22 10 12 1016.1 - 0.0
31/12:30pm 14.7 12.3 12.7 88 1.1 NNE 17 20 9 11 1016.5 - 0.0
31/12:00pm 13.6 11.4 12.0 90 0.9 NE 15 19 8 10 1017.0 1017.1 0.0
31/11:30am 14.4 12.5 13.0 91 0.8 NE 15 20 8 11 1017.5 - 0.0
31/11:00am 14.2 11.9 12.9 92 0.7 NE 17 20 9 11 1017.7 - 0.0
31/10:30am 14.3 11.7 13.2 93 0.6 NE 19 20 10 11 1018.2 - 0.0
31/10:00am 13.8 11.5 12.9 94 0.5 NE 17 22 9 12 1018.5 - 0.0
31/09:30am 13.3 10.3 12.5 95 0.4 NNE 20 24 11 13 1018.9 - 0.0
31/09:00am 13.1 9.6 12.3 95 0.4 NNE 22 24 12 13 1019.0 1019.2 0.0
31/08:30am 12.5 8.5 11.7 95 0.4 NNE 24 28 13 15 1019.0 - 0.0
31/08:00am 12.6 9.0 12.0 96 0.3 NE 22 26 12 14 1019.3 - 0.0
31/07:30am 11.9 8.1 11.3 96 0.3 NE 22 26 12 14 1019.3 - 0.0
31/07:00am 11.2 6.9 10.6 96 0.3 NNE 24 28 13 15 1019.2 - 0.0
31/06:30am 11.3 7.4 10.7 96 0.3 NNE 22 28 12 15 1019.1 - 0.0
31/06:00am 11.2 7.6 10.6 96 0.3 NNE 20 22 11 12 1018.9 1019.1 0.0
31/05:30am 11.3 7.7 10.5 95 0.4 NNE 20 22 11 12 1018.9 - 0.0
31/05:00am 11.2 7.6 10.4 95 0.4 N 20 22 11 12 1019.0 - 0.0
31/04:30am 11.1 7.4 10.3 95 0.4 NNE 20 24 11 13 1019.1 - 0.0
31/04:00am 11.2 7.6 10.4 95 0.4 NNE 20 24 11 13 1019.2 - 0.0
31/03:30am 11.2 7.2 10.3 94 0.5 NNE 22 26 12 14 1019.4 - 0.0
31/03:00am 11.2 6.8 10.3 94 0.5 NNE 24 28 13 15 1019.6 1019.8 0.0
31/02:30am 11.2 6.8 10.3 94 0.5 NNE 24 30 13 16 1019.9 - 0.0
31/02:00am 11.5 6.4 10.6 94 0.5 NE 28 32 15 17 1020.1 - 0.0
31/01:30am 11.5 6.3 10.4 93 0.6 NE 28 33 15 18 1020.5 - 0.0
31/01:00am 11.6 6.1 10.5 93 0.6 NE 30 33 16 18 1020.8 - 0.0
31/12:30am 11.6 6.4 10.3 92 0.7 NE 28 35 15 19 1021.2 - 0.0
31/12:00am 11.6 6.0 10.3 92 0.7 NE 30 33 16 18 1021.5 1021.6 0.0
 
Date/Time
EST
Temp
°C
App
Temp
°C
Dew
Point
Rel
Hum
%
Delta-T
°C
Wind Press
QNH
hPa
Press
MSL
hPa
Rain
since 9 am
mm
Dir
 
Spd
km/h
Gust
km/h
Spd
kts
Gust
kts
30/11:30pm 11.4 6.5 10.0 91 0.7 NE 26 30 14 16 1022.1 - 0.0
30/11:00pm 11.5 6.6 10.1 91 0.7 NE 26 30 14 16 1022.5 - 0.0
30/10:30pm 11.5 6.6 9.9 90 0.8 NE 26 30 14 16 1022.8 - 0.0
30/10:00pm 11.7 6.1 10.1 90 0.8 NE 30 33 16 18 1023.0 - 0.0
30/09:30pm 11.4 6.1 9.8 90 0.8 NE 28 35 15 19 1023.1 - 0.0
30/09:00pm 11.4 5.7 9.8 90 0.8 NE 30 35 16 19 1023.0 1023.1 0.0
30/08:30pm 11.7 5.5 10.1 90 0.8 ENE 33 39 18 21 1022.8 - 0.0
30/08:00pm 11.6 5.4 10.0 90 0.8 ENE 33 39 18 21 1022.8 - 0.0
30/07:30pm 11.6 5.4 9.9 89 0.9 ENE 33 37 18 20 1023.0 - 0.0
30/07:00pm 11.5 5.4 9.6 88 1.0 ENE 32 35 17 19 1023.2 - 0.0
30/06:30pm 11.7 5.6 9.6 87 1.1 ENE 32 35 17 19 1023.5 - 0.0
30/06:00pm 11.6 5.4 9.3 86 1.2 E 32 37 17 20 1023.5 1023.6 0.0
30/05:30pm 11.8 5.6 9.4 85 1.2 ENE 32 35 17 19 1023.5 - 0.0
30/05:00pm 12.2 5.8 9.4 83 1.4 ENE 33 39 18 21 1023.3 - 0.0
30/04:30pm 12.6 5.8 9.2 80 1.7 ENE 35 39 19 21 1023.5 - 0.0
30/04:00pm 13.1 6.7 9.4 78 1.9 ENE 33 37 18 20 1023.7 - 0.0
30/03:30pm 13.6 7.8 9.5 76 2.1 ENE 30 35 16 19 1023.9 - 0.0
30/03:00pm 14.0 7.9 9.6 75 2.3 ENE 32 35 17 19 1024.0 1024.1 0.0
30/02:30pm 14.1 7.3 9.3 73 2.5 ENE 35 39 19 21 1024.1 - 0.0
30/02:00pm 14.4 8.3 9.6 73 2.5 NE 32 37 17 20 1024.4 - 0.0
30/01:30pm 14.6 8.4 9.4 71 2.7 NE 32 35 17 19 1024.6 - 0.0
30/01:00pm 14.7 7.9 9.1 69 2.9 NE 35 41 19 22 1025.0 - 0.0
30/12:30pm 14.8 8.6 9.4 70 2.8 NE 32 37 17 20 1025.5 - 0.0
30/12:00pm 14.8 8.6 9.4 70 2.8 NE 32 35 17 19 1025.9 1026.1 0.0

Other Formats:

Comma delimited format used in spreadsheet applications
http://www.bom.gov.au/fwo/IDV60801/IDV60801.94949.axf

JavaScript Object Notation format (JSON) in row-major order
http://www.bom.gov.au/fwo/IDV60801/IDV60801.94949.json